sensor_id;sensor_type;location;lat;lon;timestamp;P1;P2;P0
76043;PMS7003;64740;34.694;33.088;2023-05-10T00:01:55;7.4;7.2;5.9
76043;PMS7003;64740;34.694;33.088;2023-05-10T00:06:31;7.5;7.3;5.8
76043;PMS7003;64740;34.694;33.088;2023-05-10T00:12:05;7.2;6.6;5.4
76043;PMS7003;64740;34.694;33.088;2023-05-10T00:16:41;7.5;6.7;5.5
76043;PMS7003;64740;34.694;33.088;2023-05-10T00:21:21;7.6;6.7;5.4
76043;PMS7003;64740;34.694;33.088;2023-05-10T00:26:51;7.5;7;5.7
76043;PMS7003;64740;34.694;33.088;2023-05-10T00:32:01;7.6;6.8;5.5
76043;PMS7003;64740;34.694;33.088;2023-05-10T00:36:43;7.5;7.1;6
76043;PMS7003;64740;34.694;33.088;2023-05-10T00:41:51;6.6;6.5;5.4
76043;PMS7003;64740;34.694;33.088;2023-05-10T00:46:49;7.7;6.9;5.6
76043;PMS7003;64740;34.694;33.088;2023-05-10T00:51:41;7.7;7.1;5.7
76043;PMS7003;64740;34.694;33.088;2023-05-10T00:56:29;8.1;7.6;6.1
76043;PMS7003;64740;34.694;33.088;2023-05-10T01:01:41;8.2;7.2;5.8
76043;PMS7003;64740;34.694;33.088;2023-05-10T01:07:03;7.2;6.9;5.9
76043;PMS7003;64740;34.694;33.088;2023-05-10T01:12:03;7.3;6.9;5.7
76043;PMS7003;64740;34.694;33.088;2023-05-10T01:16:32;7.3;7.2;6
76043;PMS7003;64740;34.694;33.088;2023-05-10T01:22:05;7.2;7.1;5.9
76043;PMS7003;64740;34.694;33.088;2023-05-10T01:27:02;7.8;7.2;5.7
76043;PMS7003;64740;34.694;33.088;2023-05-10T01:31:51;7.9;7.8;6.1
76043;PMS7003;64740;34.694;33.088;2023-05-10T01:36:45;8.1;7.7;6
76043;PMS7003;64740;34.694;33.088;2023-05-10T01:42:04;7.8;7.3;6.1
76043;PMS7003;64740;34.694;33.088;2023-05-10T01:46:32;8.2;7.7;6
76043;PMS7003;64740;34.694;33.088;2023-05-10T01:51:38;8.2;7.1;5.8
76043;PMS7003;64740;34.694;33.088;2023-05-10T01:57:03;8.4;7.5;5.8
76043;PMS7003;64740;34.694;33.088;2023-05-10T02:01:31;8.8;7.4;5.9
76043;PMS7003;64740;34.694;33.088;2023-05-10T02:06:37;8.4;8.1;6.8
76043;PMS7003;64740;34.694;33.088;2023-05-10T02:11:41;9.5;8;6.5
76043;PMS7003;64740;34.694;33.088;2023-05-10T02:17:02;9.2;8.3;6.7
76043;PMS7003;64740;34.694;33.088;2023-05-10T02:21:47;8.5;7.8;6.3
76043;PMS7003;64740;34.694;33.088;2023-05-10T02:26:39;8.6;8.1;7
76043;PMS7003;64740;34.694;33.088;2023-05-10T02:31:43;9;8.6;6.8
76043;PMS7003;64740;34.694;33.088;2023-05-10T02:36:41;8.5;7.5;6.2
76043;PMS7003;64740;34.694;33.088;2023-05-10T02:41:30;8.1;7.6;6.2
76043;PMS7003;64740;34.694;33.088;2023-05-10T02:46:43;8.6;8;6.2
76043;PMS7003;64740;34.694;33.088;2023-05-10T02:51:21;7.8;7.5;6.2
76043;PMS7003;64740;34.694;33.088;2023-05-10T02:56:28;8.5;7.8;6.2
76043;PMS7003;64740;34.694;33.088;2023-05-10T03:02:03;8.6;8.1;6.5
76043;PMS7003;64740;34.694;33.088;2023-05-10T03:06:53;8.6;7.8;6.1
76043;PMS7003;64740;34.694;33.088;2023-05-10T03:11:47;8.3;7.8;6.3
76043;PMS7003;64740;34.694;33.088;2023-05-10T03:17:04;9.1;8.1;6.5
76043;PMS7003;64740;34.694;33.088;2023-05-10T03:21:31;8.9;8.3;6.6
76043;PMS7003;64740;34.694;33.088;2023-05-10T03:26:33;9.3;8.7;6.8
76043;PMS7003;64740;34.694;33.088;2023-05-10T03:31:51;9.6;8.6;6.8
76043;PMS7003;64740;34.694;33.088;2023-05-10T03:37:03;10.1;9.4;7.4
76043;PMS7003;64740;34.694;33.088;2023-05-10T03:41:21;9.3;8.6;7
76043;PMS7003;64740;34.694;33.088;2023-05-10T03:47:03;10.4;8.3;6.7
76043;PMS7003;64740;34.694;33.088;2023-05-10T03:52:03;9.4;8.8;7.1
76043;PMS7003;64740;34.694;33.088;2023-05-10T03:56:55;9.5;8.9;7
76043;PMS7003;64740;34.694;33.088;2023-05-10T04:01:37;9.8;8.3;6.9
76043;PMS7003;64740;34.694;33.088;2023-05-10T04:06:55;8.5;7.9;6.5
76043;PMS7003;64740;34.694;33.088;2023-05-10T04:11:51;9.9;8.8;7
76043;PMS7003;64740;34.694;33.088;2023-05-10T04:17:03;8.9;8.2;6.6
76043;PMS7003;64740;34.694;33.088;2023-05-10T04:21:43;9.2;8.3;6.6
76043;PMS7003;64740;34.694;33.088;2023-05-10T04:27:03;9;8.1;6.3
76043;PMS7003;64740;34.694;33.088;2023-05-10T04:31:29;9.2;8.6;6.8
76043;PMS7003;64740;34.694;33.088;2023-05-10T04:36:29;9.6;8.9;7
76043;PMS7003;64740;34.694;33.088;2023-05-10T04:41:33;10.3;9.6;7.6
76043;PMS7003;64740;34.694;33.088;2023-05-10T04:47:01;10.6;10;7.7
76043;PMS7003;64740;34.694;33.088;2023-05-10T04:51:39;11.8;11.1;9
76043;PMS7003;64740;34.694;33.088;2023-05-10T04:56:27;13.5;12.7;9.4
76043;PMS7003;64740;34.694;33.088;2023-05-10T05:02:01;14;12.6;9.4
76043;PMS7003;64740;34.694;33.088;2023-05-10T05:06:35;14.6;13.4;10.3
76043;PMS7003;64740;34.694;33.088;2023-05-10T05:11:35;15.1;13.8;10.6
76043;PMS7003;64740;34.694;33.088;2023-05-10T05:16:39;14.8;13;10
76043;PMS7003;64740;34.694;33.088;2023-05-10T05:22:01;14.7;13.7;10.3
76043;PMS7003;64740;34.694;33.088;2023-05-10T05:26:39;15.9;14.2;10.7
76043;PMS7003;64740;34.694;33.088;2023-05-10T05:31:37;22.6;20.1;14.2
76043;PMS7003;64740;34.694;33.088;2023-05-10T05:36:43;16.5;15.3;11.7
76043;PMS7003;64740;34.694;33.088;2023-05-10T05:41:51;14.5;13.7;10.8
76043;PMS7003;64740;34.694;33.088;2023-05-10T05:46:21;15.2;14;11
76043;PMS7003;64740;34.694;33.088;2023-05-10T05:51:41;13;12.8;9.4
76043;PMS7003;64740;34.694;33.088;2023-05-10T05:56:37;15.8;14.7;10.6
76043;PMS7003;64740;34.694;33.088;2023-05-10T06:01:21;14.6;13.7;10.3
76043;PMS7003;64740;34.694;33.088;2023-05-10T06:07:01;15;13.7;10.1
76043;PMS7003;64740;34.694;33.088;2023-05-10T06:11:51;15.1;14.3;10.8
76043;PMS7003;64740;34.694;33.088;2023-05-10T06:16:22;13.5;12.7;10
76043;PMS7003;64740;34.694;33.088;2023-05-10T06:21:59;13.6;13.2;9.7
76043;PMS7003;64740;34.694;33.088;2023-05-10T06:26:37;15.2;13.9;10.5
76043;PMS7003;64740;34.694;33.088;2023-05-10T06:31:21;16;14.6;11
76043;PMS7003;64740;34.694;33.088;2023-05-10T06:36:47;15.3;13.5;9.9
76043;PMS7003;64740;34.694;33.088;2023-05-10T06:41:59;16.3;14.9;11.2
76043;PMS7003;64740;34.694;33.088;2023-05-10T06:46:29;16.5;14.7;10.9
76043;PMS7003;64740;34.694;33.088;2023-05-10T06:51:59;15.4;14.4;10.7
76043;PMS7003;64740;34.694;33.088;2023-05-10T06:56:57;15.4;13.8;10.7
76043;PMS7003;64740;34.694;33.088;2023-05-10T07:01:29;15.7;14.4;10.6
76043;PMS7003;64740;34.694;33.088;2023-05-10T07:06:43;14.7;13.5;10.3
76043;PMS7003;64740;34.694;33.088;2023-05-10T07:11:35;15.8;14.2;10.6
76043;PMS7003;64740;34.694;33.088;2023-05-10T07:16:49;15.5;14.2;10.7
76043;PMS7003;64740;34.694;33.088;2023-05-10T07:21:47;15.4;13.4;10.5
76043;PMS7003;64740;34.694;33.088;2023-05-10T07:26:29;15.4;13.9;10.2
76043;PMS7003;64740;34.694;33.088;2023-05-10T07:31:59;15.6;14.4;11.1
76043;PMS7003;64740;34.694;33.088;2023-05-10T07:36:49;14.6;13.5;10.3
76043;PMS7003;64740;34.694;33.088;2023-05-10T07:41:21;15.8;14.6;10.9
76043;PMS7003;64740;34.694;33.088;2023-05-10T07:46:41;15;13.9;10.6
76043;PMS7003;64740;34.694;33.088;2023-05-10T07:51:45;15.8;14.9;11.3
76043;PMS7003;64740;34.694;33.088;2023-05-10T07:56:22;16.4;15.6;11.7
76043;PMS7003;64740;34.694;33.088;2023-05-10T08:01:43;17.4;15.3;11.3
76043;PMS7003;64740;34.694;33.088;2023-05-10T08:06:51;17.1;15.2;11.1
76043;PMS7003;64740;34.694;33.088;2023-05-10T08:11:21;16;15.2;11.6
76043;PMS7003;64740;34.694;33.088;2023-05-10T08:16:29;17.1;15.7;11.7
76043;PMS7003;64740;34.694;33.088;2023-05-10T08:21:29;15.8;14.5;10.8
76043;PMS7003;64740;34.694;33.088;2023-05-10T08:26:59;14.7;13.7;10.3
76043;PMS7003;64740;34.694;33.088;2023-05-10T08:31:47;14.2;13.2;10
76043;PMS7003;64740;34.694;33.088;2023-05-10T08:36:21;14.4;13.1;10.2
76043;PMS7003;64740;34.694;33.088;2023-05-10T08:41:41;15;13.8;10.3
76043;PMS7003;64740;34.694;33.088;2023-05-10T08:46:51;15.1;13.4;10.3
76043;PMS7003;64740;34.694;33.088;2023-05-10T08:51:23;14.4;12.9;9.7
76043;PMS7003;64740;34.694;33.088;2023-05-10T08:56:33;15.5;14.1;10.3
76043;PMS7003;64740;34.694;33.088;2023-05-10T09:01:21;14.5;13.7;10.3
76043;PMS7003;64740;34.694;33.088;2023-05-10T09:06:21;14.2;13.4;10.4
76043;PMS7003;64740;34.694;33.088;2023-05-10T09:11:59;15.6;14.4;10.9
76043;PMS7003;64740;34.694;33.088;2023-05-10T09:16:51;17.5;16.2;11.5
76043;PMS7003;64740;34.694;33.088;2023-05-10T09:21:21;17.8;16.8;12.7
76043;PMS7003;64740;34.694;33.088;2023-05-10T09:26:59;18.1;17;12.8
76043;PMS7003;64740;34.694;33.088;2023-05-10T09:31:45;17;16.2;12.4
76043;PMS7003;64740;34.694;33.088;2023-05-10T09:36:21;18.4;17.2;12.8
76043;PMS7003;64740;34.694;33.088;2023-05-10T09:41:45;20.4;19.3;13.8
76043;PMS7003;64740;34.694;33.088;2023-05-10T09:46:59;20.1;18.7;14.6
76043;PMS7003;64740;34.694;33.088;2023-05-10T09:51:29;21.7;20;14.9
76043;PMS7003;64740;34.694;33.088;2023-05-10T09:56:59;20.8;19.3;14.4
76043;PMS7003;64740;34.694;33.088;2023-05-10T10:01:55;20.4;19.2;14.3
76043;PMS7003;64740;34.694;33.088;2023-05-10T10:07:00;22.9;20.9;15.3
76043;PMS7003;64740;34.694;33.088;2023-05-10T10:11:36;21.8;20.1;14.9
76043;PMS7003;64740;34.694;33.088;2023-05-10T10:16:57;20.4;19.4;14.9
76043;PMS7003;64740;34.694;33.088;2023-05-10T10:21:49;21.5;20.6;15
76043;PMS7003;64740;34.694;33.088;2023-05-10T10:26:37;20.8;19.7;14.6
76043;PMS7003;64740;34.694;33.088;2023-05-10T10:31:29;20;19;14
76043;PMS7003;64740;34.694;33.088;2023-05-10T10:37:03;20.7;19.8;14.7
76043;PMS7003;64740;34.694;33.088;2023-05-10T10:41:28;19.7;18.6;14
76043;PMS7003;64740;34.694;33.088;2023-05-10T10:46:29;20.9;19.8;14.2
76043;PMS7003;64740;34.694;33.088;2023-05-10T10:52:12;21.1;20;14.9
76043;PMS7003;64740;34.694;33.088;2023-05-10T10:56:44;21.1;19.5;14.2
76043;PMS7003;64740;34.694;33.088;2023-05-10T11:01:21;20.2;19;14.1
76043;PMS7003;64740;34.694;33.088;2023-05-10T11:06:51;20.9;19.9;14.7
76043;PMS7003;64740;34.694;33.088;2023-05-10T11:11:52;19.1;17.6;13.3
76043;PMS7003;64740;34.694;33.088;2023-05-10T11:16:29;19.9;19.2;14.1
76043;PMS7003;64740;34.694;33.088;2023-05-10T11:22:15;19.6;18.5;13.8
76043;PMS7003;64740;34.694;33.088;2023-05-10T11:26:21;18.4;16.7;12.5
76043;PMS7003;64740;34.694;33.088;2023-05-10T11:31:41;17;16.2;12.2
76043;PMS7003;64740;34.694;33.088;2023-05-10T11:36:46;16.2;15.3;11.9
76043;PMS7003;64740;34.694;33.088;2023-05-10T11:41:59;16.4;16;12.4
76043;PMS7003;64740;34.694;33.088;2023-05-10T11:46:33;16.6;15.8;12
76043;PMS7003;64740;34.694;33.088;2023-05-10T11:51:49;15.1;14.2;10.9
76043;PMS7003;64740;34.694;33.088;2023-05-10T11:56:45;16.1;14.8;11.2
76043;PMS7003;64740;34.694;33.088;2023-05-10T12:01:51;16.2;15.2;11.8
76043;PMS7003;64740;34.694;33.088;2023-05-10T12:06:40;16.2;15.6;12.1
76043;PMS7003;64740;34.694;33.088;2023-05-10T12:11:24;15.4;14.8;11.2
76043;PMS7003;64740;34.694;33.088;2023-05-10T12:17:01;16.1;14.7;11.8
76043;PMS7003;64740;34.694;33.088;2023-05-10T12:21:51;15.2;14.4;11.3
76043;PMS7003;64740;34.694;33.088;2023-05-10T12:26:21;14.6;13.6;10.3
76043;PMS7003;64740;34.694;33.088;2023-05-10T12:32:01;13.9;13.3;10.6
76043;PMS7003;64740;34.694;33.088;2023-05-10T12:36:29;13.6;12.8;10.3
76043;PMS7003;64740;34.694;33.088;2023-05-10T12:41:21;14.1;12.7;9.4
76043;PMS7003;64740;34.694;33.088;2023-05-10T12:46:49;12.6;12.1;9.4
76043;PMS7003;64740;34.694;33.088;2023-05-10T12:51:59;12.3;12;9.2
76043;PMS7003;64740;34.694;33.088;2023-05-10T12:56:29;12.3;11.5;9.3
76043;PMS7003;64740;34.694;33.088;2023-05-10T13:01:59;12.7;11.5;8.7
76043;PMS7003;64740;34.694;33.088;2023-05-10T13:07:03;12.5;11.8;9.2
76043;PMS7003;64740;34.694;33.088;2023-05-10T13:11:55;13.3;11.6;8.7
76043;PMS7003;64740;34.694;33.088;2023-05-10T13:16:39;12.3;11.2;9
76043;PMS7003;64740;34.694;33.088;2023-05-10T13:21:53;11.3;10.8;8.7
76043;PMS7003;64740;34.694;33.088;2023-05-10T13:26:51;11.1;10.3;8.1
76043;PMS7003;64740;34.694;33.088;2023-05-10T13:31:49;11.2;10.1;7.9
76043;PMS7003;64740;34.694;33.088;2023-05-10T13:36:31;12.3;11.4;8.8
76043;PMS7003;64740;34.694;33.088;2023-05-10T13:42:01;12.3;11.8;9.5
76043;PMS7003;64740;34.694;33.088;2023-05-10T13:46:49;11.4;10.7;8.4
76043;PMS7003;64740;34.694;33.088;2023-05-10T13:51:32;11.8;11.5;8.9
76043;PMS7003;64740;34.694;33.088;2023-05-10T13:56:43;11.1;10.8;8.8
76043;PMS7003;64740;34.694;33.088;2023-05-10T14:01:48;10.2;9.3;7.4
76043;PMS7003;64740;34.694;33.088;2023-05-10T14:06:31;10.4;9.8;7.8
76043;PMS7003;64740;34.694;33.088;2023-05-10T14:11:53;10.1;9.3;7.5
76043;PMS7003;64740;34.694;33.088;2023-05-10T14:16:53;10.6;10;8.2
76043;PMS7003;64740;34.694;33.088;2023-05-10T14:21:21;10.6;9.8;7.8
76043;PMS7003;64740;34.694;33.088;2023-05-10T14:27:01;10.2;9.5;7.9
76043;PMS7003;64740;34.694;33.088;2023-05-10T14:31:39;10.4;9.6;7.3
76043;PMS7003;64740;34.694;33.088;2023-05-10T14:36:34;9.9;8.7;6.9
76043;PMS7003;64740;34.694;33.088;2023-05-10T14:41:47;9.3;9;7.1
76043;PMS7003;64740;34.694;33.088;2023-05-10T14:47:01;9.7;9.1;7.1
76043;PMS7003;64740;34.694;33.088;2023-05-10T14:51:21;9.8;9.3;7.6
76043;PMS7003;64740;34.694;33.088;2023-05-10T14:56:23;9;8.7;6.8
76043;PMS7003;64740;34.694;33.088;2023-05-10T15:01:48;10.2;9.5;7.5
76043;PMS7003;64740;34.694;33.088;2023-05-10T15:06:51;10.2;9.2;7.4
76043;PMS7003;64740;34.694;33.088;2023-05-10T15:11:38;10.6;9.6;7.7
76043;PMS7003;64740;34.694;33.088;2023-05-10T15:16:21;11.2;10.5;8.2
76043;PMS7003;64740;34.694;33.088;2023-05-10T15:22:01;11.1;10.3;7.9
76043;PMS7003;64740;34.694;33.088;2023-05-10T15:27:01;9.5;9;7.4
76043;PMS7003;64740;34.694;33.088;2023-05-10T15:31:32;10.2;9.4;7.7
76043;PMS7003;64740;34.694;33.088;2023-05-10T15:37:01;9.8;9;7.1
76043;PMS7003;64740;34.694;33.088;2023-05-10T15:41:39;10.4;9.6;7.4
76043;PMS7003;64740;34.694;33.088;2023-05-10T15:46:21;10;9;7.3
76043;PMS7003;64740;34.694;33.088;2023-05-10T15:51:41;13.2;11.3;8.8
76043;PMS7003;64740;34.694;33.088;2023-05-10T15:57:02;10.9;9.6;7.7
76043;PMS7003;64740;34.694;33.088;2023-05-10T16:01:22;9.3;8.3;6.5
76043;PMS7003;64740;34.694;33.088;2023-05-10T16:07:02;8.4;7.8;6.1
76043;PMS7003;64740;34.694;33.088;2023-05-10T16:12:02;12.3;11.1;8.5
76043;PMS7003;64740;34.694;33.088;2023-05-10T16:16:54;8.3;8.1;6.6
76043;PMS7003;64740;34.694;33.088;2023-05-10T16:21:21;8.7;7.6;6.1
76043;PMS7003;64740;34.694;33.088;2023-05-10T16:26:59;7.9;7.7;6.1
76043;PMS7003;64740;34.694;33.088;2023-05-10T16:31:51;8.4;7.7;6.3
76043;PMS7003;64740;34.694;33.088;2023-05-10T16:36:48;8.1;7.7;6.3
76043;PMS7003;64740;34.694;33.088;2023-05-10T16:41:21;9.3;8.1;6.6
76043;PMS7003;64740;34.694;33.088;2023-05-10T16:47:01;9;7.7;6.3
76043;PMS7003;64740;34.694;33.088;2023-05-10T16:51:52;9.2;7.6;6.2
76043;PMS7003;64740;34.694;33.088;2023-05-10T16:56:21;8.1;7.5;5.9
76043;PMS7003;64740;34.694;33.088;2023-05-10T17:01:21;9.2;8.3;6.8
76043;PMS7003;64740;34.694;33.088;2023-05-10T17:06:48;10.4;9.3;7.4
76043;PMS7003;64740;34.694;33.088;2023-05-10T17:11:32;10.4;9.6;7.2
76043;PMS7003;64740;34.694;33.088;2023-05-10T17:16:54;9.8;9.2;7.5
76043;PMS7003;64740;34.694;33.088;2023-05-10T17:21:42;10.3;9.4;7.4
76043;PMS7003;64740;34.694;33.088;2023-05-10T17:26:56;10.7;9.6;7.9
76043;PMS7003;64740;34.694;33.088;2023-05-10T17:32:02;10.9;10;7.9
76043;PMS7003;64740;34.694;33.088;2023-05-10T17:36:30;9.8;9.5;7.8
76043;PMS7003;64740;34.694;33.088;2023-05-10T17:41:20;11.4;10.5;8.3
76043;PMS7003;64740;34.694;33.088;2023-05-10T17:46:48;10.1;9.7;7.7
76043;PMS7003;64740;34.694;33.088;2023-05-10T17:52:02;10;9.4;7.8
76043;PMS7003;64740;34.694;33.088;2023-05-10T17:56:44;10.2;9.9;7.7
76043;PMS7003;64740;34.694;33.088;2023-05-10T18:01:52;11.1;10.5;8.2
76043;PMS7003;64740;34.694;33.088;2023-05-10T18:06:48;12.9;11.5;8.9
76043;PMS7003;64740;34.694;33.088;2023-05-10T18:11:54;11.6;11;8.7
76043;PMS7003;64740;34.694;33.088;2023-05-10T18:16:38;10.7;10.2;7.8
76043;PMS7003;64740;34.694;33.088;2023-05-10T18:21:38;11.8;11;8.6
76043;PMS7003;64740;34.694;33.088;2023-05-10T18:27:02;12.6;11.1;8.4
76043;PMS7003;64740;34.694;33.088;2023-05-10T18:32:02;12.6;11.6;8.7
76043;PMS7003;64740;34.694;33.088;2023-05-10T18:36:22;13.5;12.2;8.6
76043;PMS7003;64740;34.694;33.088;2023-05-10T18:42:02;15.8;14.4;10.7
76043;PMS7003;64740;34.694;33.088;2023-05-10T18:46:40;15.2;14.5;10.6
76043;PMS7003;64740;34.694;33.088;2023-05-10T18:51:22;14.8;13.9;10.9
76043;PMS7003;64740;34.694;33.088;2023-05-10T18:56:44;15.6;14.4;10.9
76043;PMS7003;64740;34.694;33.088;2023-05-10T19:01:48;16;15.3;11.5
76043;PMS7003;64740;34.694;33.088;2023-05-10T19:06:40;16.8;15;11.2
76043;PMS7003;64740;34.694;33.088;2023-05-10T19:11:38;14.6;13.7;10.8
76043;PMS7003;64740;34.694;33.088;2023-05-10T19:16:54;14.6;14;10.5
76043;PMS7003;64740;34.694;33.088;2023-05-10T19:21:22;13.5;12.8;9.9
76043;PMS7003;64740;34.694;33.088;2023-05-10T19:26:28;13.7;12.6;9.9
76043;PMS7003;64740;34.694;33.088;2023-05-10T19:31:42;14.1;13;10
76043;PMS7003;64740;34.694;33.088;2023-05-10T19:37:06;13.5;12.1;9.4
76043;PMS7003;64740;34.694;33.088;2023-05-10T19:41:52;13.7;12.9;9.6
76043;PMS7003;64740;34.694;33.088;2023-05-10T19:46:42;15.1;13.8;10.9
76043;PMS7003;64740;34.694;33.088;2023-05-10T19:51:44;15.3;14.5;11.2
76043;PMS7003;64740;34.694;33.088;2023-05-10T19:56:54;14.9;13.5;10.5
76043;PMS7003;64740;34.694;33.088;2023-05-10T20:01:32;13.7;12.5;9.6
76043;PMS7003;64740;34.694;33.088;2023-05-10T20:06:44;12.9;12;9.4
76043;PMS7003;64740;34.694;33.088;2023-05-10T20:11:48;12.4;11.4;9.2
76043;PMS7003;64740;34.694;33.088;2023-05-10T20:16:32;11.8;11.4;8.8
76043;PMS7003;64740;34.694;33.088;2023-05-10T20:21:54;12.1;11.2;8.6
76043;PMS7003;64740;34.694;33.088;2023-05-10T20:26:54;11.8;10.6;8.3
76043;PMS7003;64740;34.694;33.088;2023-05-10T20:31:22;10.3;9.9;7.6
76043;PMS7003;64740;34.694;33.088;2023-05-10T20:37:04;11.6;10.8;8.4
76043;PMS7003;64740;34.694;33.088;2023-05-10T20:41:38;11.1;10.4;8
76043;PMS7003;64740;34.694;33.088;2023-05-10T20:46:34;11.6;10.7;8.6
76043;PMS7003;64740;34.694;33.088;2023-05-10T20:51:42;11;10;7.7
76043;PMS7003;64740;34.694;33.088;2023-05-10T20:57:04;9.3;8.8;7.1
76043;PMS7003;64740;34.694;33.088;2023-05-10T21:01:44;10.5;9.7;7.7
76043;PMS7003;64740;34.694;33.088;2023-05-10T21:06:52;10.9;10.6;8
76043;PMS7003;64740;34.694;33.088;2023-05-10T21:11:46;9.2;8.8;7.4
76043;PMS7003;64740;34.694;33.088;2023-05-10T21:17:02;10.5;9.6;7.6
76043;PMS7003;64740;34.694;33.088;2023-05-10T21:21:22;9.6;9.4;7.4
76043;PMS7003;64740;34.694;33.088;2023-05-10T21:26:36;10.7;10;7.7
76043;PMS7003;64740;34.694;33.088;2023-05-10T21:32:02;10.9;10;7.9
76043;PMS7003;64740;34.694;33.088;2023-05-10T21:36:48;10.8;9.6;7.5
76043;PMS7003;64740;34.694;33.088;2023-05-10T21:41:22;10.9;10.2;8.1
76043;PMS7003;64740;34.694;33.088;2023-05-10T21:46:56;12;10.4;8.1
76043;PMS7003;64740;34.694;33.088;2023-05-10T21:51:40;11.4;10.3;8.1
76043;PMS7003;64740;34.694;33.088;2023-05-10T21:56:40;11.1;10.6;8
76043;PMS7003;64740;34.694;33.088;2023-05-10T22:01:22;10.2;9.4;7.6
76043;PMS7003;64740;34.694;33.088;2023-05-10T22:07:02;11;10.1;7.9
76043;PMS7003;64740;34.694;33.088;2023-05-10T22:11:22;11.5;10;7.8
76043;PMS7003;64740;34.694;33.088;2023-05-10T22:16:38;9.7;9;7.2
76043;PMS7003;64740;34.694;33.088;2023-05-10T22:22:02;10.1;9.5;7.6
76043;PMS7003;64740;34.694;33.088;2023-05-10T22:26:22;9.6;9.1;7.1
76043;PMS7003;64740;34.694;33.088;2023-05-10T22:31:38;10.6;9.4;7.6
76043;PMS7003;64740;34.694;33.088;2023-05-10T22:36:40;11.1;9.9;7.9
76043;PMS7003;64740;34.694;33.088;2023-05-10T22:42:00;10.1;9.6;7.7
76043;PMS7003;64740;34.694;33.088;2023-05-10T22:47:00;10.3;9.4;7.7
76043;PMS7003;64740;34.694;33.088;2023-05-10T22:51:22;9.5;8.7;7.1
76043;PMS7003;64740;34.694;33.088;2023-05-10T22:56:44;9.3;9;7.1
76043;PMS7003;64740;34.694;33.088;2023-05-10T23:01:50;8.9;8.7;6.9
76043;PMS7003;64740;34.694;33.088;2023-05-10T23:06:30;9.4;8.8;7.3
76043;PMS7003;64740;34.694;33.088;2023-05-10T23:11:44;9.4;8.7;6.8
76043;PMS7003;64740;34.694;33.088;2023-05-10T23:16:22;10.6;9.4;7.2
76043;PMS7003;64740;34.694;33.088;2023-05-10T23:21:22;10.6;9.9;7.6
76043;PMS7003;64740;34.694;33.088;2023-05-10T23:27:00;8.8;8.3;6.8
76043;PMS7003;64740;34.694;33.088;2023-05-10T23:31:52;9.9;9.5;7.5
76043;PMS7003;64740;34.694;33.088;2023-05-10T23:36:28;9.8;9.3;7.5
76043;PMS7003;64740;34.694;33.088;2023-05-10T23:41:58;9.4;9.1;7.3
76043;PMS7003;64740;34.694;33.088;2023-05-10T23:46:38;10.7;9.8;7.6
76043;PMS7003;64740;34.694;33.088;2023-05-10T23:51:42;8.5;7.5;6.2
76043;PMS7003;64740;34.694;33.088;2023-05-10T23:56:44;10.6;9.6;7.8
